sensor_id;sensor_type;location;lat;lon;timestamp;P1;durP1;ratioP1;P2;durP2;ratioP2
3755;SDS011;1893;52.526;13.360;2023-08-24T00:01:08;4.63;;;3.93;;
3755;SDS011;1893;52.526;13.360;2023-08-24T00:03:37;6.43;;;4.40;;
3755;SDS011;1893;52.526;13.360;2023-08-24T00:06:23;7.30;;;4.20;;
3755;SDS011;1893;52.526;13.360;2023-08-24T00:08:49;6.67;;;4.70;;
3755;SDS011;1893;52.526;13.360;2023-08-24T00:11:15;5.43;;;4.63;;
3755;SDS011;1893;52.526;13.360;2023-08-24T00:13:41;7.83;;;4.30;;
3755;SDS011;1893;52.526;13.360;2023-08-24T00:16:19;5.20;;;4.40;;
3755;SDS011;1893;52.526;13.360;2023-08-24T00:18:45;5.40;;;4.13;;
3755;SDS011;1893;52.526;13.360;2023-08-24T00:21:14;4.53;;;4.13;;
3755;SDS011;1893;52.526;13.360;2023-08-24T00:23:47;7.70;;;6.30;;
3755;SDS011;1893;52.526;13.360;2023-08-24T00:26:13;7.70;;;6.80;;
3755;SDS011;1893;52.526;13.360;2023-08-24T00:28:41;8.03;;;6.40;;
3755;SDS011;1893;52.526;13.360;2023-08-24T00:31:07;7.70;;;6.50;;
3755;SDS011;1893;52.526;13.360;2023-08-24T00:33:33;7.73;;;6.43;;
3755;SDS011;1893;52.526;13.360;2023-08-24T00:35:59;7.33;;;5.57;;
3755;SDS011;1893;52.526;13.360;2023-08-24T00:38:29;9.23;;;5.77;;
3755;SDS011;1893;52.526;13.360;2023-08-24T00:40:55;7.53;;;6.03;;
3755;SDS011;1893;52.526;13.360;2023-08-24T00:43:21;8.37;;;5.73;;
3755;SDS011;1893;52.526;13.360;2023-08-24T00:45:49;6.20;;;5.20;;
3755;SDS011;1893;52.526;13.360;2023-08-24T00:48:16;6.77;;;6.07;;
3755;SDS011;1893;52.526;13.360;2023-08-24T00:50:46;7.10;;;5.13;;
3755;SDS011;1893;52.526;13.360;2023-08-24T00:53:12;7.40;;;5.73;;
3755;SDS011;1893;52.526;13.360;2023-08-24T00:55:38;7.10;;;5.17;;
3755;SDS011;1893;52.526;13.360;2023-08-24T00:58:03;9.20;;;5.50;;
3755;SDS011;1893;52.526;13.360;2023-08-24T01:00:29;6.73;;;5.47;;
3755;SDS011;1893;52.526;13.360;2023-08-24T01:02:55;6.30;;;5.37;;
3755;SDS011;1893;52.526;13.360;2023-08-24T01:05:21;9.70;;;5.60;;
3755;SDS011;1893;52.526;13.360;2023-08-24T01:07:47;7.30;;;5.23;;
3755;SDS011;1893;52.526;13.360;2023-08-24T01:10:13;7.03;;;5.37;;
3755;SDS011;1893;52.526;13.360;2023-08-24T01:13:00;7.93;;;6.30;;
3755;SDS011;1893;52.526;13.360;2023-08-24T01:15:34;5.87;;;5.00;;
3755;SDS011;1893;52.526;13.360;2023-08-24T01:18:13;7.20;;;5.00;;
3755;SDS011;1893;52.526;13.360;2023-08-24T01:20:42;6.27;;;5.37;;
3755;SDS011;1893;52.526;13.360;2023-08-24T01:25:42;5.33;;;4.83;;
3755;SDS011;1893;52.526;13.360;2023-08-24T01:28:18;7.27;;;5.70;;
3755;SDS011;1893;52.526;13.360;2023-08-24T01:30:45;7.13;;;6.37;;
3755;SDS011;1893;52.526;13.360;2023-08-24T01:33:11;6.57;;;5.30;;
3755;SDS011;1893;52.526;13.360;2023-08-24T01:35:38;6.03;;;5.43;;
3755;SDS011;1893;52.526;13.360;2023-08-24T01:38:04;6.83;;;5.20;;
3755;SDS011;1893;52.526;13.360;2023-08-24T01:43:19;8.13;;;5.70;;
3755;SDS011;1893;52.526;13.360;2023-08-24T01:45:46;5.80;;;5.00;;
3755;SDS011;1893;52.526;13.360;2023-08-24T01:48:14;6.13;;;5.53;;
3755;SDS011;1893;52.526;13.360;2023-08-24T01:50:40;9.17;;;5.10;;
3755;SDS011;1893;52.526;13.360;2023-08-24T01:53:07;7.00;;;5.20;;
3755;SDS011;1893;52.526;13.360;2023-08-24T01:55:32;6.27;;;5.20;;
3755;SDS011;1893;52.526;13.360;2023-08-24T01:57:59;6.10;;;5.47;;
3755;SDS011;1893;52.526;13.360;2023-08-24T02:00:25;8.00;;;4.83;;
3755;SDS011;1893;52.526;13.360;2023-08-24T02:02:51;6.47;;;4.83;;
3755;SDS011;1893;52.526;13.360;2023-08-24T02:05:17;7.17;;;5.07;;
3755;SDS011;1893;52.526;13.360;2023-08-24T02:07:42;8.70;;;4.63;;
3755;SDS011;1893;52.526;13.360;2023-08-24T02:10:08;6.10;;;4.70;;
3755;SDS011;1893;52.526;13.360;2023-08-24T02:12:34;4.40;;;3.90;;
3755;SDS011;1893;52.526;13.360;2023-08-24T02:14:59;5.50;;;4.60;;
3755;SDS011;1893;52.526;13.360;2023-08-24T02:17:34;4.23;;;3.93;;
3755;SDS011;1893;52.526;13.360;2023-08-24T02:20:00;5.10;;;4.57;;
3755;SDS011;1893;52.526;13.360;2023-08-24T02:22:26;5.53;;;5.03;;
3755;SDS011;1893;52.526;13.360;2023-08-24T02:24:51;5.03;;;4.07;;
3755;SDS011;1893;52.526;13.360;2023-08-24T02:27:17;4.63;;;4.23;;
3755;SDS011;1893;52.526;13.360;2023-08-24T02:29:43;5.40;;;4.20;;
3755;SDS011;1893;52.526;13.360;2023-08-24T02:32:08;4.77;;;4.30;;
3755;SDS011;1893;52.526;13.360;2023-08-24T02:34:34;6.00;;;5.03;;
3755;SDS011;1893;52.526;13.360;2023-08-24T02:37:00;6.10;;;4.33;;
3755;SDS011;1893;52.526;13.360;2023-08-24T02:39:25;5.27;;;4.77;;
3755;SDS011;1893;52.526;13.360;2023-08-24T02:41:51;3.93;;;3.60;;
3755;SDS011;1893;52.526;13.360;2023-08-24T02:44:17;6.80;;;4.47;;
3755;SDS011;1893;52.526;13.360;2023-08-24T02:46:47;4.50;;;4.07;;
3755;SDS011;1893;52.526;13.360;2023-08-24T02:49:13;5.63;;;4.63;;
3755;SDS011;1893;52.526;13.360;2023-08-24T02:51:39;5.80;;;4.50;;
3755;SDS011;1893;52.526;13.360;2023-08-24T02:54:05;4.23;;;3.80;;
3755;SDS011;1893;52.526;13.360;2023-08-24T02:56:49;6.10;;;4.50;;
3755;SDS011;1893;52.526;13.360;2023-08-24T02:59:15;4.40;;;3.70;;
3755;SDS011;1893;52.526;13.360;2023-08-24T03:01:40;4.63;;;4.23;;
3755;SDS011;1893;52.526;13.360;2023-08-24T03:04:06;4.93;;;4.47;;
3755;SDS011;1893;52.526;13.360;2023-08-24T03:06:32;4.87;;;4.10;;
3755;SDS011;1893;52.526;13.360;2023-08-24T03:08:59;5.00;;;4.37;;
3755;SDS011;1893;52.526;13.360;2023-08-24T03:11:26;5.20;;;4.50;;
3755;SDS011;1893;52.526;13.360;2023-08-24T03:13:51;4.67;;;3.73;;
3755;SDS011;1893;52.526;13.360;2023-08-24T03:16:17;5.07;;;4.63;;
3755;SDS011;1893;52.526;13.360;2023-08-24T03:18:42;5.10;;;4.60;;
3755;SDS011;1893;52.526;13.360;2023-08-24T03:21:08;6.63;;;4.80;;
3755;SDS011;1893;52.526;13.360;2023-08-24T03:23:34;5.53;;;4.70;;
3755;SDS011;1893;52.526;13.360;2023-08-24T03:26:00;4.70;;;4.30;;
3755;SDS011;1893;52.526;13.360;2023-08-24T03:28:26;5.07;;;4.20;;
3755;SDS011;1893;52.526;13.360;2023-08-24T03:30:52;5.23;;;4.43;;
3755;SDS011;1893;52.526;13.360;2023-08-24T03:33:19;10.00;;;5.30;;
3755;SDS011;1893;52.526;13.360;2023-08-24T03:36:06;4.67;;;4.13;;
3755;SDS011;1893;52.526;13.360;2023-08-24T03:38:31;6.03;;;4.07;;
3755;SDS011;1893;52.526;13.360;2023-08-24T03:41:05;7.13;;;4.90;;
3755;SDS011;1893;52.526;13.360;2023-08-24T03:43:32;9.17;;;5.10;;
3755;SDS011;1893;52.526;13.360;2023-08-24T03:45:59;6.30;;;5.03;;
3755;SDS011;1893;52.526;13.360;2023-08-24T03:48:25;5.23;;;4.70;;
3755;SDS011;1893;52.526;13.360;2023-08-24T03:50:53;5.53;;;5.13;;
3755;SDS011;1893;52.526;13.360;2023-08-24T03:53:20;4.90;;;4.40;;
3755;SDS011;1893;52.526;13.360;2023-08-24T03:55:51;6.67;;;5.07;;
3755;SDS011;1893;52.526;13.360;2023-08-24T03:58:17;4.30;;;3.33;;
3755;SDS011;1893;52.526;13.360;2023-08-24T04:00:43;6.93;;;4.60;;
3755;SDS011;1893;52.526;13.360;2023-08-24T04:03:10;5.40;;;4.30;;
3755;SDS011;1893;52.526;13.360;2023-08-24T04:05:36;5.10;;;3.53;;
3755;SDS011;1893;52.526;13.360;2023-08-24T04:08:01;5.17;;;4.40;;
3755;SDS011;1893;52.526;13.360;2023-08-24T04:10:28;4.87;;;4.37;;
3755;SDS011;1893;52.526;13.360;2023-08-24T04:12:54;6.90;;;5.13;;
3755;SDS011;1893;52.526;13.360;2023-08-24T04:15:20;5.50;;;4.60;;
3755;SDS011;1893;52.526;13.360;2023-08-24T04:17:45;6.67;;;4.13;;
3755;SDS011;1893;52.526;13.360;2023-08-24T04:20:11;6.80;;;3.57;;
3755;SDS011;1893;52.526;13.360;2023-08-24T04:22:37;4.23;;;3.93;;
3755;SDS011;1893;52.526;13.360;2023-08-24T04:25:03;4.27;;;3.87;;
3755;SDS011;1893;52.526;13.360;2023-08-24T04:27:29;4.57;;;3.83;;
3755;SDS011;1893;52.526;13.360;2023-08-24T04:29:55;5.67;;;3.83;;
3755;SDS011;1893;52.526;13.360;2023-08-24T04:32:21;4.77;;;3.10;;
3755;SDS011;1893;52.526;13.360;2023-08-24T04:34:47;6.53;;;4.17;;
3755;SDS011;1893;52.526;13.360;2023-08-24T04:37:13;7.00;;;3.37;;
3755;SDS011;1893;52.526;13.360;2023-08-24T04:39:38;4.47;;;4.10;;
3755;SDS011;1893;52.526;13.360;2023-08-24T04:42:04;4.13;;;3.27;;
3755;SDS011;1893;52.526;13.360;2023-08-24T04:44:31;5.13;;;3.30;;
3755;SDS011;1893;52.526;13.360;2023-08-24T04:46:57;4.27;;;3.40;;
3755;SDS011;1893;52.526;13.360;2023-08-24T04:49:22;4.40;;;4.00;;
3755;SDS011;1893;52.526;13.360;2023-08-24T04:51:48;4.63;;;3.80;;
3755;SDS011;1893;52.526;13.360;2023-08-24T04:54:14;3.87;;;3.47;;
3755;SDS011;1893;52.526;13.360;2023-08-24T04:56:39;6.07;;;3.47;;
3755;SDS011;1893;52.526;13.360;2023-08-24T04:59:05;3.77;;;3.47;;
3755;SDS011;1893;52.526;13.360;2023-08-24T05:01:32;5.60;;;4.37;;
3755;SDS011;1893;52.526;13.360;2023-08-24T05:03:58;4.80;;;3.50;;
3755;SDS011;1893;52.526;13.360;2023-08-24T05:06:24;6.13;;;3.50;;
3755;SDS011;1893;52.526;13.360;2023-08-24T05:08:50;6.40;;;4.00;;
3755;SDS011;1893;52.526;13.360;2023-08-24T05:11:19;6.07;;;3.83;;
3755;SDS011;1893;52.526;13.360;2023-08-24T05:13:48;5.43;;;3.03;;
3755;SDS011;1893;52.526;13.360;2023-08-24T05:16:13;3.50;;;3.20;;
3755;SDS011;1893;52.526;13.360;2023-08-24T05:18:39;5.03;;;3.33;;
3755;SDS011;1893;52.526;13.360;2023-08-24T05:21:05;4.13;;;3.70;;
3755;SDS011;1893;52.526;13.360;2023-08-24T05:23:32;7.27;;;3.77;;
3755;SDS011;1893;52.526;13.360;2023-08-24T05:25:58;6.77;;;3.50;;
3755;SDS011;1893;52.526;13.360;2023-08-24T05:28:25;6.37;;;4.20;;
3755;SDS011;1893;52.526;13.360;2023-08-24T05:30:54;4.43;;;3.70;;
3755;SDS011;1893;52.526;13.360;2023-08-24T05:33:21;7.03;;;3.77;;
3755;SDS011;1893;52.526;13.360;2023-08-24T05:35:48;4.47;;;3.87;;
3755;SDS011;1893;52.526;13.360;2023-08-24T05:38:14;4.60;;;4.07;;
3755;SDS011;1893;52.526;13.360;2023-08-24T05:40:41;5.17;;;4.43;;
3755;SDS011;1893;52.526;13.360;2023-08-24T05:43:08;6.33;;;3.97;;
3755;SDS011;1893;52.526;13.360;2023-08-24T05:45:34;11.00;;;3.90;;
3755;SDS011;1893;52.526;13.360;2023-08-24T05:48:00;3.93;;;3.53;;
3755;SDS011;1893;52.526;13.360;2023-08-24T05:50:26;4.73;;;4.30;;
3755;SDS011;1893;52.526;13.360;2023-08-24T05:52:51;4.47;;;4.07;;
3755;SDS011;1893;52.526;13.360;2023-08-24T05:55:17;3.83;;;3.47;;
3755;SDS011;1893;52.526;13.360;2023-08-24T05:57:43;4.00;;;3.70;;
3755;SDS011;1893;52.526;13.360;2023-08-24T06:00:08;5.10;;;3.60;;
3755;SDS011;1893;52.526;13.360;2023-08-24T06:02:38;7.73;;;3.60;;
3755;SDS011;1893;52.526;13.360;2023-08-24T06:05:05;5.90;;;3.90;;
3755;SDS011;1893;52.526;13.360;2023-08-24T06:07:31;5.43;;;3.90;;
3755;SDS011;1893;52.526;13.360;2023-08-24T06:09:57;6.53;;;3.83;;
3755;SDS011;1893;52.526;13.360;2023-08-24T06:12:23;4.63;;;3.87;;
3755;SDS011;1893;52.526;13.360;2023-08-24T06:14:49;7.43;;;2.77;;
3755;SDS011;1893;52.526;13.360;2023-08-24T06:17:14;3.60;;;3.03;;
3755;SDS011;1893;52.526;13.360;2023-08-24T06:19:40;6.70;;;3.70;;
3755;SDS011;1893;52.526;13.360;2023-08-24T06:22:06;6.23;;;2.90;;
3755;SDS011;1893;52.526;13.360;2023-08-24T06:24:32;4.80;;;3.03;;
3755;SDS011;1893;52.526;13.360;2023-08-24T06:26:58;3.17;;;2.90;;
3755;SDS011;1893;52.526;13.360;2023-08-24T06:29:23;4.67;;;4.17;;
3755;SDS011;1893;52.526;13.360;2023-08-24T06:31:49;6.67;;;3.00;;
3755;SDS011;1893;52.526;13.360;2023-08-24T06:34:14;5.23;;;3.40;;
3755;SDS011;1893;52.526;13.360;2023-08-24T06:36:40;5.57;;;3.30;;
3755;SDS011;1893;52.526;13.360;2023-08-24T06:39:06;3.20;;;3.00;;
3755;SDS011;1893;52.526;13.360;2023-08-24T06:41:35;4.90;;;2.90;;
3755;SDS011;1893;52.526;13.360;2023-08-24T06:44:01;3.43;;;2.97;;
3755;SDS011;1893;52.526;13.360;2023-08-24T06:46:27;7.27;;;3.20;;
3755;SDS011;1893;52.526;13.360;2023-08-24T06:48:52;4.23;;;2.97;;
3755;SDS011;1893;52.526;13.360;2023-08-24T06:51:18;11.30;;;3.20;;
3755;SDS011;1893;52.526;13.360;2023-08-24T06:53:43;3.47;;;2.70;;
3755;SDS011;1893;52.526;13.360;2023-08-24T06:56:11;3.37;;;2.80;;
3755;SDS011;1893;52.526;13.360;2023-08-24T06:58:39;8.33;;;3.07;;
3755;SDS011;1893;52.526;13.360;2023-08-24T07:01:04;4.03;;;3.27;;
3755;SDS011;1893;52.526;13.360;2023-08-24T07:03:31;4.70;;;2.70;;
3755;SDS011;1893;52.526;13.360;2023-08-24T07:05:58;5.27;;;2.97;;
3755;SDS011;1893;52.526;13.360;2023-08-24T07:08:24;4.00;;;3.30;;
3755;SDS011;1893;52.526;13.360;2023-08-24T07:10:49;5.90;;;4.00;;
3755;SDS011;1893;52.526;13.360;2023-08-24T07:13:15;4.13;;;3.67;;
3755;SDS011;1893;52.526;13.360;2023-08-24T07:15:41;3.03;;;2.77;;
3755;SDS011;1893;52.526;13.360;2023-08-24T07:18:07;6.60;;;3.37;;
3755;SDS011;1893;52.526;13.360;2023-08-24T07:20:33;9.37;;;3.50;;
3755;SDS011;1893;52.526;13.360;2023-08-24T07:22:59;3.87;;;3.33;;
3755;SDS011;1893;52.526;13.360;2023-08-24T07:25:26;3.63;;;2.80;;
3755;SDS011;1893;52.526;13.360;2023-08-24T07:27:53;5.93;;;2.83;;
3755;SDS011;1893;52.526;13.360;2023-08-24T07:30:23;6.67;;;3.63;;
3755;SDS011;1893;52.526;13.360;2023-08-24T07:32:54;3.97;;;2.63;;
3755;SDS011;1893;52.526;13.360;2023-08-24T07:35:20;3.83;;;2.80;;
3755;SDS011;1893;52.526;13.360;2023-08-24T07:37:49;4.93;;;4.00;;
3755;SDS011;1893;52.526;13.360;2023-08-24T07:40:15;3.17;;;2.97;;
3755;SDS011;1893;52.526;13.360;2023-08-24T07:42:47;3.50;;;3.17;;
3755;SDS011;1893;52.526;13.360;2023-08-24T07:45:19;4.20;;;3.20;;
3755;SDS011;1893;52.526;13.360;2023-08-24T07:47:45;5.63;;;3.40;;
3755;SDS011;1893;52.526;13.360;2023-08-24T07:50:11;3.20;;;2.90;;
3755;SDS011;1893;52.526;13.360;2023-08-24T07:52:40;3.40;;;3.13;;
3755;SDS011;1893;52.526;13.360;2023-08-24T07:55:06;4.90;;;3.03;;
3755;SDS011;1893;52.526;13.360;2023-08-24T07:57:35;4.70;;;3.70;;
3755;SDS011;1893;52.526;13.360;2023-08-24T08:00:01;6.20;;;3.37;;
3755;SDS011;1893;52.526;13.360;2023-08-24T08:02:27;4.57;;;3.10;;
3755;SDS011;1893;52.526;13.360;2023-08-24T08:04:56;3.10;;;2.80;;
3755;SDS011;1893;52.526;13.360;2023-08-24T08:07:23;5.20;;;2.90;;
3755;SDS011;1893;52.526;13.360;2023-08-24T08:09:49;3.20;;;2.90;;
3755;SDS011;1893;52.526;13.360;2023-08-24T08:12:14;3.10;;;2.80;;
3755;SDS011;1893;52.526;13.360;2023-08-24T08:14:40;4.80;;;2.83;;
3755;SDS011;1893;52.526;13.360;2023-08-24T08:17:05;6.70;;;2.43;;
3755;SDS011;1893;52.526;13.360;2023-08-24T08:19:31;3.67;;;3.00;;
3755;SDS011;1893;52.526;13.360;2023-08-24T08:21:57;2.90;;;2.70;;
3755;SDS011;1893;52.526;13.360;2023-08-24T08:24:23;3.10;;;2.90;;
3755;SDS011;1893;52.526;13.360;2023-08-24T08:26:48;5.50;;;3.03;;
3755;SDS011;1893;52.526;13.360;2023-08-24T08:29:14;7.37;;;3.10;;
3755;SDS011;1893;52.526;13.360;2023-08-24T08:31:40;5.23;;;2.70;;
3755;SDS011;1893;52.526;13.360;2023-08-24T08:34:06;3.67;;;3.17;;
3755;SDS011;1893;52.526;13.360;2023-08-24T08:36:31;6.10;;;3.30;;
3755;SDS011;1893;52.526;13.360;2023-08-24T08:38:57;4.40;;;3.07;;
3755;SDS011;1893;52.526;13.360;2023-08-24T08:41:23;3.60;;;3.10;;
3755;SDS011;1893;52.526;13.360;2023-08-24T08:43:55;3.80;;;3.43;;
3755;SDS011;1893;52.526;13.360;2023-08-24T08:46:21;5.20;;;3.00;;
3755;SDS011;1893;52.526;13.360;2023-08-24T08:48:47;3.10;;;2.90;;
3755;SDS011;1893;52.526;13.360;2023-08-24T08:51:15;3.10;;;2.67;;
3755;SDS011;1893;52.526;13.360;2023-08-24T08:53:42;5.23;;;2.40;;
3755;SDS011;1893;52.526;13.360;2023-08-24T08:56:08;7.80;;;2.87;;
3755;SDS011;1893;52.526;13.360;2023-08-24T08:58:34;4.13;;;3.30;;
3755;SDS011;1893;52.526;13.360;2023-08-24T09:01:02;6.03;;;2.70;;
3755;SDS011;1893;52.526;13.360;2023-08-24T09:03:29;3.90;;;2.60;;
3755;SDS011;1893;52.526;13.360;2023-08-24T09:05:56;6.50;;;2.87;;
3755;SDS011;1893;52.526;13.360;2023-08-24T09:08:22;4.47;;;1.93;;
3755;SDS011;1893;52.526;13.360;2023-08-24T09:10:49;3.97;;;2.83;;
3755;SDS011;1893;52.526;13.360;2023-08-24T09:13:15;4.70;;;2.47;;
3755;SDS011;1893;52.526;13.360;2023-08-24T09:15:40;3.40;;;2.00;;
3755;SDS011;1893;52.526;13.360;2023-08-24T09:18:06;5.27;;;2.80;;
3755;SDS011;1893;52.526;13.360;2023-08-24T09:20:33;3.77;;;3.00;;
3755;SDS011;1893;52.526;13.360;2023-08-24T09:22:59;2.70;;;2.50;;
3755;SDS011;1893;52.526;13.360;2023-08-24T09:25:25;4.83;;;2.63;;
3755;SDS011;1893;52.526;13.360;2023-08-24T09:28:01;3.90;;;2.97;;
3755;SDS011;1893;52.526;13.360;2023-08-24T09:30:31;2.60;;;2.40;;
3755;SDS011;1893;52.526;13.360;2023-08-24T09:33:04;2.40;;;2.30;;
3755;SDS011;1893;52.526;13.360;2023-08-24T09:35:38;6.20;;;2.57;;
3755;SDS011;1893;52.526;13.360;2023-08-24T09:38:19;6.13;;;2.80;;
3755;SDS011;1893;52.526;13.360;2023-08-24T09:40:45;3.53;;;2.47;;
3755;SDS011;1893;52.526;13.360;2023-08-24T09:43:15;3.43;;;2.53;;
3755;SDS011;1893;52.526;13.360;2023-08-24T09:46:15;3.53;;;3.23;;
3755;SDS011;1893;52.526;13.360;2023-08-24T09:48:33;4.27;;;3.00;;
3755;SDS011;1893;52.526;13.360;2023-08-24T09:51:00;2.40;;;2.03;;
3755;SDS011;1893;52.526;13.360;2023-08-24T09:53:29;6.23;;;2.60;;
3755;SDS011;1893;52.526;13.360;2023-08-24T09:56:01;4.50;;;2.33;;
3755;SDS011;1893;52.526;13.360;2023-08-24T09:58:28;2.90;;;2.40;;
3755;SDS011;1893;52.526;13.360;2023-08-24T10:00:55;7.50;;;2.80;;
3755;SDS011;1893;52.526;13.360;2023-08-24T10:03:24;2.47;;;2.23;;
3755;SDS011;1893;52.526;13.360;2023-08-24T10:05:52;4.60;;;2.63;;
3755;SDS011;1893;52.526;13.360;2023-08-24T10:08:27;3.40;;;2.37;;
3755;SDS011;1893;52.526;13.360;2023-08-24T10:11:00;2.83;;;2.60;;
3755;SDS011;1893;52.526;13.360;2023-08-24T10:15:57;5.00;;;2.37;;
3755;SDS011;1893;52.526;13.360;2023-08-24T10:18:25;2.43;;;1.90;;
3755;SDS011;1893;52.526;13.360;2023-08-24T10:20:52;2.23;;;2.00;;
3755;SDS011;1893;52.526;13.360;2023-08-24T10:23:17;3.27;;;2.97;;
3755;SDS011;1893;52.526;13.360;2023-08-24T10:25:45;4.30;;;2.47;;
3755;SDS011;1893;52.526;13.360;2023-08-24T10:28:11;6.63;;;2.43;;
3755;SDS011;1893;52.526;13.360;2023-08-24T10:30:38;2.30;;;2.10;;
3755;SDS011;1893;52.526;13.360;2023-08-24T10:33:05;9.20;;;2.23;;
3755;SDS011;1893;52.526;13.360;2023-08-24T10:35:32;4.70;;;2.30;;
3755;SDS011;1893;52.526;13.360;2023-08-24T10:37:58;3.00;;;1.97;;
3755;SDS011;1893;52.526;13.360;2023-08-24T10:40:34;4.60;;;2.53;;
3755;SDS011;1893;52.526;13.360;2023-08-24T10:43:02;3.50;;;2.43;;
3755;SDS011;1893;52.526;13.360;2023-08-24T10:53:44;2.50;;;2.27;;
3755;SDS011;1893;52.526;13.360;2023-08-24T10:56:14;2.57;;;2.30;;
3755;SDS011;1893;52.526;13.360;2023-08-24T10:58:41;9.43;;;2.60;;
3755;SDS011;1893;52.526;13.360;2023-08-24T11:01:16;8.00;;;3.33;;
3755;SDS011;1893;52.526;13.360;2023-08-24T11:03:56;3.13;;;2.83;;
3755;SDS011;1893;52.526;13.360;2023-08-24T11:06:22;3.77;;;2.50;;
3755;SDS011;1893;52.526;13.360;2023-08-24T11:08:57;3.80;;;2.50;;
3755;SDS011;1893;52.526;13.360;2023-08-24T11:11:38;2.30;;;2.10;;
3755;SDS011;1893;52.526;13.360;2023-08-24T11:16:46;3.13;;;2.93;;
3755;SDS011;1893;52.526;13.360;2023-08-24T11:19:13;3.40;;;3.20;;
3755;SDS011;1893;52.526;13.360;2023-08-24T11:21:40;7.63;;;3.10;;
3755;SDS011;1893;52.526;13.360;2023-08-24T11:24:07;3.17;;;2.97;;
3755;SDS011;1893;52.526;13.360;2023-08-24T11:26:34;5.90;;;3.13;;
3755;SDS011;1893;52.526;13.360;2023-08-24T11:29:00;3.87;;;3.07;;
3755;SDS011;1893;52.526;13.360;2023-08-24T11:31:30;6.00;;;3.67;;
3755;SDS011;1893;52.526;13.360;2023-08-24T11:33:56;3.33;;;2.50;;
3755;SDS011;1893;52.526;13.360;2023-08-24T11:36:21;4.40;;;3.67;;
3755;SDS011;1893;52.526;13.360;2023-08-24T11:38:49;5.37;;;3.33;;
3755;SDS011;1893;52.526;13.360;2023-08-24T11:41:18;5.97;;;3.13;;
3755;SDS011;1893;52.526;13.360;2023-08-24T11:43:46;4.00;;;3.03;;
3755;SDS011;1893;52.526;13.360;2023-08-24T11:46:15;5.83;;;3.57;;
3755;SDS011;1893;52.526;13.360;2023-08-24T11:48:41;5.73;;;4.30;;
3755;SDS011;1893;52.526;13.360;2023-08-24T11:51:08;4.93;;;3.70;;
3755;SDS011;1893;52.526;13.360;2023-08-24T11:53:39;10.93;;;3.90;;
3755;SDS011;1893;52.526;13.360;2023-08-24T11:56:05;4.17;;;3.87;;
3755;SDS011;1893;52.526;13.360;2023-08-24T11:58:33;4.20;;;3.90;;
3755;SDS011;1893;52.526;13.360;2023-08-24T12:00:59;5.87;;;3.70;;
3755;SDS011;1893;52.526;13.360;2023-08-24T12:03:27;6.70;;;3.77;;
3755;SDS011;1893;52.526;13.360;2023-08-24T12:05:53;5.63;;;3.43;;
3755;SDS011;1893;52.526;13.360;2023-08-24T12:08:21;3.83;;;3.53;;
3755;SDS011;1893;52.526;13.360;2023-08-24T12:10:47;7.33;;;3.90;;
3755;SDS011;1893;52.526;13.360;2023-08-24T12:13:13;4.00;;;3.67;;
3755;SDS011;1893;52.526;13.360;2023-08-24T12:15:38;4.90;;;4.43;;
3755;SDS011;1893;52.526;13.360;2023-08-24T12:18:09;4.47;;;3.07;;
3755;SDS011;1893;52.526;13.360;2023-08-24T12:20:35;4.27;;;3.60;;
3755;SDS011;1893;52.526;13.360;2023-08-24T12:23:01;3.87;;;3.47;;
3755;SDS011;1893;52.526;13.360;2023-08-24T12:25:27;3.90;;;3.30;;
3755;SDS011;1893;52.526;13.360;2023-08-24T12:28:07;5.30;;;4.00;;
3755;SDS011;1893;52.526;13.360;2023-08-24T12:31:09;5.23;;;3.50;;
3755;SDS011;1893;52.526;13.360;2023-08-24T12:33:29;7.07;;;4.00;;
3755;SDS011;1893;52.526;13.360;2023-08-24T12:35:58;5.10;;;3.87;;
3755;SDS011;1893;52.526;13.360;2023-08-24T12:38:24;3.67;;;3.30;;
3755;SDS011;1893;52.526;13.360;2023-08-24T12:40:51;4.00;;;3.53;;
3755;SDS011;1893;52.526;13.360;2023-08-24T12:43:17;5.37;;;3.10;;
3755;SDS011;1893;52.526;13.360;2023-08-24T12:45:42;6.20;;;3.03;;
3755;SDS011;1893;52.526;13.360;2023-08-24T12:48:08;5.47;;;3.33;;
3755;SDS011;1893;52.526;13.360;2023-08-24T12:50:35;4.77;;;3.30;;
3755;SDS011;1893;52.526;13.360;2023-08-24T12:53:02;4.80;;;4.00;;
3755;SDS011;1893;52.526;13.360;2023-08-24T12:55:30;3.50;;;3.10;;
3755;SDS011;1893;52.526;13.360;2023-08-24T12:57:56;3.93;;;3.63;;
3755;SDS011;1893;52.526;13.360;2023-08-24T13:00:21;3.70;;;3.40;;
3755;SDS011;1893;52.526;13.360;2023-08-24T13:02:50;5.80;;;3.47;;
3755;SDS011;1893;52.526;13.360;2023-08-24T13:05:16;3.67;;;3.00;;
3755;SDS011;1893;52.526;13.360;2023-08-24T13:07:42;4.63;;;3.60;;
3755;SDS011;1893;52.526;13.360;2023-08-24T13:10:08;4.53;;;4.13;;
3755;SDS011;1893;52.526;13.360;2023-08-24T13:12:34;4.60;;;3.43;;
3755;SDS011;1893;52.526;13.360;2023-08-24T13:15:00;5.73;;;2.93;;
3755;SDS011;1893;52.526;13.360;2023-08-24T13:17:27;6.20;;;2.93;;
3755;SDS011;1893;52.526;13.360;2023-08-24T13:19:55;5.27;;;3.37;;
3755;SDS011;1893;52.526;13.360;2023-08-24T13:22:20;3.60;;;3.30;;
3755;SDS011;1893;52.526;13.360;2023-08-24T13:24:46;4.57;;;3.70;;
3755;SDS011;1893;52.526;13.360;2023-08-24T13:27:12;3.60;;;3.30;;
3755;SDS011;1893;52.526;13.360;2023-08-24T13:29:37;4.23;;;3.40;;
3755;SDS011;1893;52.526;13.360;2023-08-24T13:32:03;3.70;;;3.40;;
3755;SDS011;1893;52.526;13.360;2023-08-24T13:34:30;3.60;;;3.30;;
3755;SDS011;1893;52.526;13.360;2023-08-24T13:36:56;10.23;;;6.07;;
3755;SDS011;1893;52.526;13.360;2023-08-24T13:39:23;4.23;;;2.97;;
3755;SDS011;1893;52.526;13.360;2023-08-24T13:41:55;8.70;;;6.00;;
3755;SDS011;1893;52.526;13.360;2023-08-24T13:44:21;5.13;;;3.57;;
3755;SDS011;1893;52.526;13.360;2023-08-24T13:46:47;4.10;;;3.70;;
3755;SDS011;1893;52.526;13.360;2023-08-24T13:49:12;3.80;;;3.30;;
3755;SDS011;1893;52.526;13.360;2023-08-24T13:51:38;2.97;;;2.77;;
3755;SDS011;1893;52.526;13.360;2023-08-24T13:54:13;4.57;;;3.57;;
3755;SDS011;1893;52.526;13.360;2023-08-24T13:56:43;3.20;;;2.90;;
3755;SDS011;1893;52.526;13.360;2023-08-24T13:59:10;4.87;;;3.23;;
3755;SDS011;1893;52.526;13.360;2023-08-24T14:01:36;3.03;;;2.73;;
3755;SDS011;1893;52.526;13.360;2023-08-24T14:04:02;6.10;;;3.50;;
3755;SDS011;1893;52.526;13.360;2023-08-24T14:06:28;4.03;;;3.10;;
3755;SDS011;1893;52.526;13.360;2023-08-24T14:08:56;3.53;;;3.17;;
3755;SDS011;1893;52.526;13.360;2023-08-24T14:11:22;7.90;;;2.90;;
3755;SDS011;1893;52.526;13.360;2023-08-24T14:13:48;3.73;;;3.10;;
3755;SDS011;1893;52.526;13.360;2023-08-24T14:16:13;6.53;;;3.10;;
3755;SDS011;1893;52.526;13.360;2023-08-24T14:18:39;2.63;;;2.43;;
3755;SDS011;1893;52.526;13.360;2023-08-24T14:21:04;3.40;;;3.10;;
3755;SDS011;1893;52.526;13.360;2023-08-24T14:23:30;4.07;;;2.97;;
3755;SDS011;1893;52.526;13.360;2023-08-24T14:25:56;7.43;;;2.60;;
3755;SDS011;1893;52.526;13.360;2023-08-24T14:28:22;3.17;;;2.50;;
3755;SDS011;1893;52.526;13.360;2023-08-24T14:30:51;6.03;;;3.33;;
3755;SDS011;1893;52.526;13.360;2023-08-24T14:33:17;3.40;;;2.60;;
3755;SDS011;1893;52.526;13.360;2023-08-24T14:35:53;5.10;;;3.10;;
3755;SDS011;1893;52.526;13.360;2023-08-24T14:38:19;2.90;;;2.70;;
3755;SDS011;1893;52.526;13.360;2023-08-24T14:40:44;3.40;;;2.70;;
3755;SDS011;1893;52.526;13.360;2023-08-24T14:43:10;4.07;;;3.00;;
3755;SDS011;1893;52.526;13.360;2023-08-24T14:45:36;6.30;;;2.63;;
3755;SDS011;1893;52.526;13.360;2023-08-24T14:48:02;6.40;;;3.07;;
3755;SDS011;1893;52.526;13.360;2023-08-24T14:50:28;3.33;;;2.47;;
3755;SDS011;1893;52.526;13.360;2023-08-24T14:52:53;5.03;;;2.43;;
3755;SDS011;1893;52.526;13.360;2023-08-24T14:55:19;3.57;;;2.40;;
3755;SDS011;1893;52.526;13.360;2023-08-24T14:57:45;6.03;;;2.13;;
3755;SDS011;1893;52.526;13.360;2023-08-24T15:00:10;2.53;;;2.37;;
3755;SDS011;1893;52.526;13.360;2023-08-24T15:02:37;2.80;;;2.50;;
3755;SDS011;1893;52.526;13.360;2023-08-24T15:05:03;3.73;;;2.67;;
3755;SDS011;1893;52.526;13.360;2023-08-24T15:07:30;2.50;;;2.30;;
3755;SDS011;1893;52.526;13.360;2023-08-24T15:09:56;4.17;;;2.90;;
3755;SDS011;1893;52.526;13.360;2023-08-24T15:12:21;3.53;;;2.83;;
3755;SDS011;1893;52.526;13.360;2023-08-24T15:14:57;4.73;;;3.13;;
3755;SDS011;1893;52.526;13.360;2023-08-24T15:17:24;3.63;;;2.90;;
3755;SDS011;1893;52.526;13.360;2023-08-24T15:19:50;8.00;;;3.23;;